Aviation Digital Data Service (ADDS)

Output produced by METARs form (2139 UTC 17 April 2014)
found at http://aviationweather.gov/adds/metars/
 
KRUT 171730Z 1718/1818 13012G20KT P6SM SCT250 
     FM180100 14010KT P6SM SCT250 
     FM181300 16013G20KT P6SM SCT180 BKN250 AMD LTD TO CLD VIS AND WIND